sensor_id;sensor_type;location;lat;lon;timestamp;P1;durP1;ratioP1;P2;durP2;ratioP2
30466;SDS011;17258;52.560;13.046;2023-02-08T00:02:24;21.50;;;17.10;;
30466;SDS011;17258;52.560;13.046;2023-02-08T00:12:25;21.83;;;17.20;;
30466;SDS011;17258;52.560;13.046;2023-02-08T00:22:27;19.63;;;17.30;;
30466;SDS011;17258;52.560;13.046;2023-02-08T00:32:27;16.80;;;15.20;;
30466;SDS011;17258;52.560;13.046;2023-02-08T00:42:28;24.67;;;19.53;;
30466;SDS011;17258;52.560;13.046;2023-02-08T00:52:29;18.42;;;16.30;;
30466;SDS011;17258;52.560;13.046;2023-02-08T01:02:29;23.07;;;17.13;;
30466;SDS011;17258;52.560;13.046;2023-02-08T01:12:30;23.63;;;17.33;;
30466;SDS011;17258;52.560;13.046;2023-02-08T01:22:31;21.07;;;18.10;;
30466;SDS011;17258;52.560;13.046;2023-02-08T01:32:31;21.10;;;17.07;;
30466;SDS011;17258;52.560;13.046;2023-02-08T01:42:32;20.33;;;16.97;;
30466;SDS011;17258;52.560;13.046;2023-02-08T01:52:32;23.10;;;17.77;;
30466;SDS011;17258;52.560;13.046;2023-02-08T02:02:34;23.52;;;15.10;;
30466;SDS011;17258;52.560;13.046;2023-02-08T02:12:38;23.20;;;17.02;;
30466;SDS011;17258;52.560;13.046;2023-02-08T02:33:40;18.45;;;14.63;;
30466;SDS011;17258;52.560;13.046;2023-02-08T02:44:04;16.80;;;11.37;;
30466;SDS011;17258;52.560;13.046;2023-02-08T02:54:21;12.38;;;10.30;;
30466;SDS011;17258;52.560;13.046;2023-02-08T03:14:35;8.50;;;5.53;;
30466;SDS011;17258;52.560;13.046;2023-02-08T03:25:19;9.77;;;8.77;;
30466;SDS011;17258;52.560;13.046;2023-02-08T03:35:24;10.95;;;9.70;;
30466;SDS011;17258;52.560;13.046;2023-02-08T03:45:34;10.80;;;9.30;;
30466;SDS011;17258;52.560;13.046;2023-02-08T03:55:40;11.18;;;10.18;;
30466;SDS011;17258;52.560;13.046;2023-02-08T04:05:46;12.95;;;11.43;;
30466;SDS011;17258;52.560;13.046;2023-02-08T04:15:47;14.10;;;10.23;;
30466;SDS011;17258;52.560;13.046;2023-02-08T04:25:48;10.03;;;8.93;;
30466;SDS011;17258;52.560;13.046;2023-02-08T04:35:49;8.83;;;7.97;;
30466;SDS011;17258;52.560;13.046;2023-02-08T04:45:49;12.77;;;9.30;;
30466;SDS011;17258;52.560;13.046;2023-02-08T04:55:51;12.85;;;11.20;;
30466;SDS011;17258;52.560;13.046;2023-02-08T05:05:55;10.48;;;9.43;;
30466;SDS011;17258;52.560;13.046;2023-02-08T05:15:57;12.05;;;10.75;;
30466;SDS011;17258;52.560;13.046;2023-02-08T05:25:58;11.68;;;10.15;;
30466;SDS011;17258;52.560;13.046;2023-02-08T05:35:58;11.85;;;10.55;;
30466;SDS011;17258;52.560;13.046;2023-02-08T05:45:59;11.40;;;9.40;;
30466;SDS011;17258;52.560;13.046;2023-02-08T05:56:00;15.48;;;11.68;;
30466;SDS011;17258;52.560;13.046;2023-02-08T06:06:00;15.33;;;12.40;;
30466;SDS011;17258;52.560;13.046;2023-02-08T06:16:01;10.93;;;9.87;;
30466;SDS011;17258;52.560;13.046;2023-02-08T06:26:02;13.83;;;11.50;;
30466;SDS011;17258;52.560;13.046;2023-02-08T06:36:02;12.63;;;9.48;;
30466;SDS011;17258;52.560;13.046;2023-02-08T06:46:03;12.90;;;11.57;;
30466;SDS011;17258;52.560;13.046;2023-02-08T06:56:07;19.30;;;10.75;;
30466;SDS011;17258;52.560;13.046;2023-02-08T07:06:12;14.63;;;11.53;;
30466;SDS011;17258;52.560;13.046;2023-02-08T07:16:17;16.88;;;10.18;;
30466;SDS011;17258;52.560;13.046;2023-02-08T07:26:19;14.00;;;11.02;;
30466;SDS011;17258;52.560;13.046;2023-02-08T07:36:20;15.13;;;12.63;;
30466;SDS011;17258;52.560;13.046;2023-02-08T07:46:21;11.33;;;10.27;;
30466;SDS011;17258;52.560;13.046;2023-02-08T07:56:21;12.30;;;11.10;;
30466;SDS011;17258;52.560;13.046;2023-02-08T08:06:23;13.47;;;12.07;;
30466;SDS011;17258;52.560;13.046;2023-02-08T08:16:24;25.98;;;13.88;;
30466;SDS011;17258;52.560;13.046;2023-02-08T08:26:25;19.57;;;13.83;;
30466;SDS011;17258;52.560;13.046;2023-02-08T08:36:26;14.90;;;12.03;;
30466;SDS011;17258;52.560;13.046;2023-02-08T08:46:26;14.10;;;11.63;;
30466;SDS011;17258;52.560;13.046;2023-02-08T08:56:27;13.63;;;12.18;;
30466;SDS011;17258;52.560;13.046;2023-02-08T09:06:28;16.67;;;12.33;;
30466;SDS011;17258;52.560;13.046;2023-02-08T09:16:28;14.93;;;12.47;;
30466;SDS011;17258;52.560;13.046;2023-02-08T09:26:30;16.25;;;12.93;;
30466;SDS011;17258;52.560;13.046;2023-02-08T09:36:31;24.38;;;13.63;;
30466;SDS011;17258;52.560;13.046;2023-02-08T09:46:36;21.42;;;13.35;;
30466;SDS011;17258;52.560;13.046;2023-02-08T09:56:42;15.00;;;12.63;;
30466;SDS011;17258;52.560;13.046;2023-02-08T10:06:46;16.20;;;12.73;;
30466;SDS011;17258;52.560;13.046;2023-02-08T10:16:58;19.77;;;13.70;;
30466;SDS011;17258;52.560;13.046;2023-02-08T10:27:15;15.03;;;12.57;;
30466;SDS011;17258;52.560;13.046;2023-02-08T10:37:33;20.30;;;14.98;;
30466;SDS011;17258;52.560;13.046;2023-02-08T10:47:38;16.73;;;13.85;;
30466;SDS011;17258;52.560;13.046;2023-02-08T10:57:55;23.02;;;16.55;;
30466;SDS011;17258;52.560;13.046;2023-02-08T11:08:09;21.50;;;14.23;;
30466;SDS011;17258;52.560;13.046;2023-02-08T11:28:30;19.48;;;14.25;;
30466;SDS011;17258;52.560;13.046;2023-02-08T11:38:32;16.40;;;12.83;;
30466;SDS011;17258;52.560;13.046;2023-02-08T11:48:43;17.45;;;14.73;;
30466;SDS011;17258;52.560;13.046;2023-02-08T11:59:03;19.02;;;14.30;;
30466;SDS011;17258;52.560;13.046;2023-02-08T12:19:49;21.63;;;15.90;;
30466;SDS011;17258;52.560;13.046;2023-02-08T12:40:45;16.42;;;14.73;;
30466;SDS011;17258;52.560;13.046;2023-02-08T12:51:45;21.45;;;14.43;;
30466;SDS011;17258;52.560;13.046;2023-02-08T13:02:13;16.15;;;13.85;;
30466;SDS011;17258;52.560;13.046;2023-02-08T13:12:35;16.23;;;13.07;;
30466;SDS011;17258;52.560;13.046;2023-02-08T13:22:41;20.95;;;15.13;;
30466;SDS011;17258;52.560;13.046;2023-02-08T13:32:42;15.65;;;14.02;;
30466;SDS011;17258;52.560;13.046;2023-02-08T13:42:48;16.30;;;13.38;;
30466;SDS011;17258;52.560;13.046;2023-02-08T13:53:15;16.20;;;14.10;;
30466;SDS011;17258;52.560;13.046;2023-02-08T14:03:25;17.42;;;13.63;;
30466;SDS011;17258;52.560;13.046;2023-02-08T14:13:33;20.80;;;14.52;;
30466;SDS011;17258;52.560;13.046;2023-02-08T14:23:39;22.10;;;14.88;;
30466;SDS011;17258;52.560;13.046;2023-02-08T14:33:41;20.27;;;15.27;;
30466;SDS011;17258;52.560;13.046;2023-02-08T14:43:50;16.27;;;14.65;;
30466;SDS011;17258;52.560;13.046;2023-02-08T14:53:51;18.03;;;14.73;;
30466;SDS011;17258;52.560;13.046;2023-02-08T15:03:58;16.13;;;14.52;;
30466;SDS011;17258;52.560;13.046;2023-02-08T15:14:00;18.73;;;16.17;;
30466;SDS011;17258;52.560;13.046;2023-02-08T15:24:04;19.52;;;15.23;;
30466;SDS011;17258;52.560;13.046;2023-02-08T15:34:15;18.33;;;14.52;;
30466;SDS011;17258;52.560;13.046;2023-02-08T15:44:19;16.98;;;14.10;;
30466;SDS011;17258;52.560;13.046;2023-02-08T15:54:29;15.80;;;13.68;;
30466;SDS011;17258;52.560;13.046;2023-02-08T16:04:30;18.38;;;14.02;;
30466;SDS011;17258;52.560;13.046;2023-02-08T16:14:42;19.77;;;14.13;;
30466;SDS011;17258;52.560;13.046;2023-02-08T16:24:42;14.45;;;12.95;;
30466;SDS011;17258;52.560;13.046;2023-02-08T16:34:45;15.65;;;13.60;;
30466;SDS011;17258;52.560;13.046;2023-02-08T16:44:56;14.73;;;12.52;;
30466;SDS011;17258;52.560;13.046;2023-02-08T16:55:10;14.98;;;12.90;;
30466;SDS011;17258;52.560;13.046;2023-02-08T17:05:16;19.73;;;15.45;;
30466;SDS011;17258;52.560;13.046;2023-02-08T17:15:19;20.05;;;14.60;;
30466;SDS011;17258;52.560;13.046;2023-02-08T17:25:21;22.92;;;15.15;;
30466;SDS011;17258;52.560;13.046;2023-02-08T17:35:23;17.48;;;13.40;;
30466;SDS011;17258;52.560;13.046;2023-02-08T17:45:27;15.93;;;13.38;;
30466;SDS011;17258;52.560;13.046;2023-02-08T17:55:28;12.48;;;11.20;;
30466;SDS011;17258;52.560;13.046;2023-02-08T18:05:29;15.07;;;12.90;;
30466;SDS011;17258;52.560;13.046;2023-02-08T18:15:30;13.20;;;11.65;;
30466;SDS011;17258;52.560;13.046;2023-02-08T18:25:30;13.17;;;11.87;;
30466;SDS011;17258;52.560;13.046;2023-02-08T18:35:31;18.07;;;12.47;;
30466;SDS011;17258;52.560;13.046;2023-02-08T18:45:32;14.77;;;13.27;;
30466;SDS011;17258;52.560;13.046;2023-02-08T18:55:32;16.97;;;12.33;;
30466;SDS011;17258;52.560;13.046;2023-02-08T19:05:35;18.93;;;13.17;;
30466;SDS011;17258;52.560;13.046;2023-02-08T19:15:37;15.80;;;12.70;;
30466;SDS011;17258;52.560;13.046;2023-02-08T19:25:39;13.90;;;12.50;;
30466;SDS011;17258;52.560;13.046;2023-02-08T19:35:40;13.63;;;11.82;;
30466;SDS011;17258;52.560;13.046;2023-02-08T19:45:42;20.30;;;13.77;;
30466;SDS011;17258;52.560;13.046;2023-02-08T19:55:43;18.52;;;12.38;;
30466;SDS011;17258;52.560;13.046;2023-02-08T20:06:11;12.30;;;10.38;;
30466;SDS011;17258;52.560;13.046;2023-02-08T20:16:18;8.93;;;8.00;;
30466;SDS011;17258;52.560;13.046;2023-02-08T20:26:21;12.35;;;9.77;;
30466;SDS011;17258;52.560;13.046;2023-02-08T20:36:28;11.33;;;10.07;;
30466;SDS011;17258;52.560;13.046;2023-02-08T20:46:32;9.90;;;8.90;;
30466;SDS011;17258;52.560;13.046;2023-02-08T20:56:34;8.63;;;7.72;;
30466;SDS011;17258;52.560;13.046;2023-02-08T21:06:36;11.18;;;8.68;;
30466;SDS011;17258;52.560;13.046;2023-02-08T21:16:38;9.27;;;7.38;;
30466;SDS011;17258;52.560;13.046;2023-02-08T21:26:39;8.93;;;7.57;;
30466;SDS011;17258;52.560;13.046;2023-02-08T21:36:40;10.85;;;8.70;;
30466;SDS011;17258;52.560;13.046;2023-02-08T21:46:40;10.17;;;7.50;;
30466;SDS011;17258;52.560;13.046;2023-02-08T21:56:41;8.17;;;7.17;;
30466;SDS011;17258;52.560;13.046;2023-02-08T22:06:41;8.97;;;8.17;;
30466;SDS011;17258;52.560;13.046;2023-02-08T22:16:48;8.38;;;7.63;;
30466;SDS011;17258;52.560;13.046;2023-02-08T22:26:48;8.87;;;7.70;;
30466;SDS011;17258;52.560;13.046;2023-02-08T22:36:49;8.70;;;6.80;;
30466;SDS011;17258;52.560;13.046;2023-02-08T22:46:50;8.37;;;7.23;;
30466;SDS011;17258;52.560;13.046;2023-02-08T22:56:50;9.30;;;7.17;;
30466;SDS011;17258;52.560;13.046;2023-02-08T23:06:51;12.60;;;7.55;;
30466;SDS011;17258;52.560;13.046;2023-02-08T23:16:52;8.95;;;8.00;;
30466;SDS011;17258;52.560;13.046;2023-02-08T23:26:52;13.30;;;8.70;;
30466;SDS011;17258;52.560;13.046;2023-02-08T23:36:53;7.60;;;6.87;;
30466;SDS011;17258;52.560;13.046;2023-02-08T23:46:54;9.07;;;7.43;;
30466;SDS011;17258;52.560;13.046;2023-02-08T23:56:54;8.50;;;7.30;;
